Map

Track Data

SID SEASON NUMBER BASIN SUBBASIN NAME ISO_TIME NATURE LAT LON WMO_WIND WMO_PRES WMO_AGENCY TRACK_TYPE DIST2LAND LANDFALL IFLAG USA_AGENCY USA_ATCF_ID USA_LAT USA_LON USA_RECORD USA_STATUS USA_WIND USA_PRES USA_SSHS USA_R34_NE USA_R34_SE USA_R34_SW USA_R34_NW USA_R50_NE USA_R50_SE USA_R50_SW USA_R50_NW USA_R64_NE USA_R64_SE USA_R64_SW USA_R64_NW USA_POCI USA_ROCI USA_RMW USA_EYE TOKYO_LAT TOKYO_LON TOKYO_GRADE TOKYO_WIND TOKYO_PRES TOKYO_R50_DIR TOKYO_R50_LONG TOKYO_R50_SHORT TOKYO_R30_DIR TOKYO_R30_LONG TOKYO_R30_SHORT TOKYO_LAND CMA_LAT CMA_LON CMA_CAT CMA_WIND CMA_PRES HKO_LAT HKO_LON HKO_CAT HKO_WIND HKO_PRES NEWDELHI_LAT NEWDELHI_LON NEWDELHI_GRADE NEWDELHI_WIND NEWDELHI_PRES NEWDELHI_CI NEWDELHI_DP NEWDELHI_POCI REUNION_LAT REUNION_LON REUNION_TYPE REUNION_WIND REUNION_PRES REUNION_TNUM REUNION_CI REUNION_RMW REUNION_R34_NE REUNION_R34_SE REUNION_R34_SW REUNION_R34_NW REUNION_R50_NE REUNION_R50_SE REUNION_R50_SW REUNION_R50_NW REUNION_R64_NE REUNION_R64_SE REUNION_R64_SW REUNION_R64_NW BOM_LAT BOM_LON BOM_TYPE BOM_WIND BOM_PRES BOM_TNUM BOM_CI BOM_RMW BOM_R34_NE BOM_R34_SE BOM_R34_SW BOM_R34_NW BOM_R50_NE BOM_R50_SE BOM_R50_SW BOM_R50_NW BOM_R64_NE BOM_R64_SE BOM_R64_SW BOM_R64_NW BOM_ROCI BOM_POCI BOM_EYE BOM_POS_METHOD BOM_PRES_METHOD NADI_LAT NADI_LON NADI_CAT NADI_WIND NADI_PRES WELLINGTON_LAT WELLINGTON_LON WELLINGTON_WIND WELLINGTON_PRES DS824_LAT DS824_LON DS824_STAGE DS824_WIND DS824_PRES TD9636_LAT TD9636_LON TD9636_STAGE TD9636_WIND TD9636_PRES TD9635_LAT TD9635_LON TD9635_WIND TD9635_PRES TD9635_ROCI NEUMANN_LAT NEUMANN_LON NEUMANN_CLASS NEUMANN_WIND NEUMANN_PRES MLC_LAT MLC_LON MLC_CLASS MLC_WIND MLC_PRES USA_GUST BOM_GUST BOM_GUST_PER REUNION_GUST REUNION_GUST_PER USA_SEAHGT USA_SEARAD_NE USA_SEARAD_SE USA_SEARAD_SW USA_SEARAD_NW STORM_SPEED STORM_DIR
2022300N13131 2022 78 WP MM NALGAE 2022-10-27 00:00:00 NR 12.6000 130.700 PROVISIONAL 562 514 O_____________ tcvitals WP262022 12.6000 130.700 25 1000 -1 1004 225 60 10 242
2022300N13131 2022 78 WP MM NALGAE 2022-10-27 03:00:00 NR 12.3727 130.255 PROVISIONAL 514 477 P_____________ WP262022 12.3727 130.255 27 999 -1 1003 225 60 8 240
2022300N13131 2022 78 WP MM NALGAE 2022-10-27 06:00:00 NR 12.2000 130.000 PROVISIONAL 477 474 O_____________ tcvitals WP262022 12.2000 130.000 29 998 -1 1002 225 60 3 220
2022300N13131 2022 78 WP MM NALGAE 2022-10-27 09:00:00 NR 12.1199 130.035 PROVISIONAL 474 474 P_____________ WP262022 12.1199 130.035 29 997 -1 1002 225 55 1 137
2022300N13131 2022 78 WP MM NALGAE 2022-10-27 12:00:00 NR 12.1000 130.100 PROVISIONAL 484 474 O_____________ tcvitals WP262022 12.1000 130.100 29 997 -1 1002 225 50 1 252
2022300N13131 2022 78 WP MM NALGAE 2022-10-27 15:00:00 NR 12.0923 129.947 PROVISIONAL 463 432 P_____________ WP262022 12.0923 129.947 34 994 0 1002 232 55 5 270
2022300N13131 2022 78 WP MM NALGAE 2022-10-27 18:00:00 NR 12.1000 129.600 PROVISIONAL 432 380 O_____________ tcvitals WP262022 12.1000 129.600 39 992 0 100 130 110 1002 240 60 8 268
2022300N13131 2022 78 WP MM NALGAE 2022-10-27 21:00:00 NR 12.0699 129.090 PROVISIONAL 380 309 P_____________ WP262022 12.0699 129.090 39 992 0 100 135 127 1002 232 50 12 270
2022300N13131 2022 78 WP MM NALGAE 2022-10-28 00:00:00 NR 12.1000 128.400 PROVISIONAL 309 228 O_____________ tcvitals WP262022 12.1000 128.400 39 993 0 100 140 145 35 1002 225 40 15 277
2022300N13131 2022 78 WP MM NALGAE 2022-10-28 03:00:00 NR 12.2552 127.573 PROVISIONAL 228 134 P_____________ WP262022 12.2552 127.573 39 993 0 120 122 117 75 1002 225 37 17 284
2022300N13131 2022 78 WP MM NALGAE 2022-10-28 06:00:00 NR 12.5000 126.700 PROVISIONAL 134 78 O_____________ tcvitals WP262022 12.5000 126.700 39 994 0 140 105 90 115 1002 225 35 17 287
2022300N13131 2022 78 WP MM NALGAE 2022-10-28 09:00:00 NR 12.7546 125.942 PROVISIONAL 79 55 P_____________ WP262022 12.7546 125.942 42 994 0 140 105 90 115 1003 220 30 16 292
2022300N13131 2022 78 WP MM NALGAE 2022-10-28 12:00:00 NR 13.1000 125.200 PROVISIONAL 67 0 O_____________ tcvitals WP262022 13.1000 125.200 45 994 0 140 105 90 115 1004 215 25 18 302
2022300N13131 2022 78 WP MM NALGAE 2022-10-28 15:00:00 NR 13.6825 124.394 PROVISIONAL 0 0 P_____________ WP262022 13.6825 124.394 49 991 0 167 140 70 112 1004 232 25 19 303
2022300N13131 2022 78 WP MM NALGAE 2022-10-28 18:00:00 NR 14.1000 123.600 PROVISIONAL 22 0 O_____________ tcvitals WP262022 14.1000 123.600 54 989 0 195 175 50 110 1004 250 25 15 278
2022300N13131 2022 78 WP MM NALGAE 2022-10-28 21:00:00 NR 13.9025 122.839 PROVISIONAL 0 0 P_____________ WP262022 13.9025 122.839 54 989 0 172 150 65 120 1004 275 25 15 250
2022300N13131 2022 78 WP MM NALGAE 2022-10-29 00:00:00 NR 13.6000 122.200 PROVISIONAL 10 10 O_____________ tcvitals WP262022 13.6000 122.200 54 990 0 150 126 80 130 1005 300 25 11 258
2022300N13131 2022 78 WP MM NALGAE 2022-10-29 03:00:00 NR 13.6822 121.740 PROVISIONAL 21 0 P_____________ WP262022 13.6822 121.740 54 990 0 150 126 80 130 1004 300 25 8 291
2022300N13131 2022 78 WP MM NALGAE 2022-10-29 06:00:00 NR 13.9000 121.400 PROVISIONAL 0 0 O_____________ tcvitals WP262022 13.9000 121.400 54 990 0 150 126 80 130 1003 300 25 7 297
2022300N13131 2022 78 WP MM NALGAE 2022-10-29 09:00:00 NR 14.0099 121.085 PROVISIONAL 0 0 P_____________ WP262022 14.0099 121.085 54 990 0 150 126 80 130 1004 300 25 7 304
2022300N13131 2022 78 WP MM NALGAE 2022-10-29 12:00:00 NR 14.3000 120.800 PROVISIONAL 0 0 O_____________ tcvitals WP262022 14.3000 120.800 54 991 0 150 126 80 130 1005 300 25 12 334
2022300N13131 2022 78 WP MM NALGAE 2022-10-29 15:00:00 NR 15.0420 120.575 PROVISIONAL 0 0 P_____________ WP262022 15.0420 120.575 49 991 0 150 110 112 192 1004 312 22 16 339
2022300N13131 2022 78 WP MM NALGAE 2022-10-29 18:00:00 NR 15.8000 120.200 PROVISIONAL 0 0 O_____________ tcvitals WP262022 15.8000 120.200 45 991 0 150 95 145 255 1004 325 20 16 318
2022300N13131 2022 78 WP MM NALGAE 2022-10-29 21:00:00 NR 16.2305 119.461 PROVISIONAL 30 30 P_____________ WP262022 16.2305 119.461 45 991 0 155 110 147 267 1004 327 20 16 288
2022300N13131 2022 78 WP MM NALGAE 2022-10-30 00:00:00 NR 16.3000 118.600 PROVISIONAL 122 122 O_____________ tcvitals WP262022 16.3000 118.600 45 992 0 160 126 150 280 1005 330 20 17 259
2022300N13131 2022 78 WP MM NALGAE 2022-10-30 03:00:00 NR 15.9178 117.741 PROVISIONAL 214 214 P_____________ WP262022 15.9178 117.741 45 991 0 160 126 150 280 1005 330 20 16 236
2022300N13131 2022 78 WP MM NALGAE 2022-10-30 06:00:00 NR 15.4000 117.200 PROVISIONAL 276 270 O_____________ tcvitals WP262022 15.4000 117.200 45 990 0 160 126 150 280 1005 330 20 10 202
2022300N13131 2022 78 WP MM NALGAE 2022-10-30 09:00:00 NR 15.0349 117.376 PROVISIONAL 270 240 P_____________ WP262022 15.0349 117.376 45 988 0 160 126 150 280 1005 330 20 6 130
2022300N13131 2022 78 WP MM NALGAE 2022-10-30 12:00:00 NR 15.0000 117.700 PROVISIONAL 240 228 O_____________ tcvitals WP262022 15.0000 117.700 45 987 0 160 126 150 280 1006 330 20 6 17
2022300N13131 2022 78 WP MM NALGAE 2022-10-30 15:00:00 NR 15.5976 117.561 PROVISIONAL 229 229 P_____________ WP262022 15.5976 117.561 45 990 0 137 118 135 177 1005 345 37 14 343
2022300N13131 2022 78 WP MM NALGAE 2022-10-30 18:00:00 NR 16.3000 117.300 PROVISIONAL 258 258 O_____________ tcvitals WP262022 16.3000 117.300 45 994 0 115 110 120 75 1005 360 55 10 336
2022300N13131 2022 78 WP MM NALGAE 2022-10-30 21:00:00 NR 16.4950 117.135 PROVISIONAL 283 283 P_____________ WP262022 16.4950 117.135 49 989 0 160 150 150 182 1005 360 47 4 316
2022300N13131 2022 78 WP MM NALGAE 2022-10-31 00:00:00 NR 16.6000 117.000 PROVISIONAL 295 295 O_____________ tcvitals WP262022 16.6000 117.000 54 985 0 205 190 180 290 1006 360 40 5 333
2022300N13131 2022 78 WP MM NALGAE 2022-10-31 03:00:00 NR 16.9200 116.907 PROVISIONAL 315 315 P_____________ WP262022 16.9200 116.907 57 984 0 205 190 180 290 1005 360 40 7 345
2022300N13131 2022 78 WP MM NALGAE 2022-10-31 06:00:00 NR 17.3000 116.800 PROVISIONAL 338 338 O_____________ tcvitals WP262022 17.3000 116.800 60 984 0 205 190 180 290 1005 360 40 8 338
2022300N13131 2022 78 WP MM NALGAE 2022-10-31 09:00:00 NR 17.6576 116.593 PROVISIONAL 374 374 P_____________ WP262022 17.6576 116.593 62 983 0 205 190 180 290 1005 360 40 8 331
2022300N13131 2022 78 WP MM NALGAE 2022-10-31 12:00:00 NR 18.0000 116.400 PROVISIONAL 408 408 O_____________ tcvitals WP262022 18.0000 116.400 64 983 1 205 190 180 290 1005 360 40 7 340
2022300N13131 2022 78 WP MM NALGAE 2022-10-31 15:00:00 NR 18.3150 116.335 PROVISIONAL 430 430 P_____________ WP262022 18.3150 116.335 67 981 1 210 162 155 230 1004 282 27 6 351
2022300N13131 2022 78 WP MM NALGAE 2022-10-31 18:00:00 NR 18.6000 116.300 PROVISIONAL 437 424 O_____________ tcvitals WP262022 18.6000 116.300 70 980 1 215 135 130 170 1003 205 14 6 349
2022300N13131 2022 78 WP MM NALGAE 2022-10-31 21:00:00 NR 18.8875 116.208 PROVISIONAL 424 400 P_____________ WP262022 18.8875 116.208 70 979 1 210 127 142 180 1004 202 22 5 339
2022300N13131 2022 78 WP MM NALGAE 2022-11-01 00:00:00 NR 19.1000 116.100 PROVISIONAL 400 397 O_____________ tcvitals WP262022 19.1000 116.100 70 979 1 205 120 155 190 1005 200 30 3 323
2022300N13131 2022 78 WP MM NALGAE 2022-11-01 03:00:00 NR 19.1425 116.007 PROVISIONAL 397 383 P_____________ WP262022 19.1425 116.007 67 980 1 225 132 137 195 1004 195 30 2 298
2022300N13131 2022 78 WP MM NALGAE 2022-11-01 06:00:00 NR 19.2000 115.900 PROVISIONAL 383 348 O_____________ tcvitals WP262022 19.2000 115.900 64 982 1 245 145 120 200 1004 190 30 4 324
2022300N13131 2022 78 WP MM NALGAE 2022-11-01 09:00:00 NR 19.4775 115.750 PROVISIONAL 348 310 P_____________ WP262022 19.4775 115.750 62 983 0 237 142 135 195 1004 195 35 7 335
2022300N13131 2022 78 WP MM NALGAE 2022-11-01 12:00:00 NR 19.8000 115.600 PROVISIONAL 310 285 O_____________ tcvitals WP262022 19.8000 115.600 60 984 0 230 140 150 190 1004 200 40 6 336
2022300N13131 2022 78 WP MM NALGAE 2022-11-01 15:00:00 NR 20.0225 115.492 PROVISIONAL 285 261 P_____________ WP262022 20.0225 115.492 57 986 0 242 115 135 170 1005 200 40 4 335
2022300N13131 2022 78 WP MM NALGAE 2022-11-01 18:00:00 NR 20.2000 115.400 PROVISIONAL 261 246 O_____________ tcvitals WP262022 20.2000 115.400 54 988 0 255 90 120 150 1007 200 40 4 332
2022300N13131 2022 78 WP MM NALGAE 2022-11-01 21:00:00 NR 20.3500 115.307 PROVISIONAL 246 221 P_____________ WP262022 20.3500 115.307 52 989 0 250 95 105 130 1007 200 40 4 329
2022300N13131 2022 78 WP MM NALGAE 2022-11-02 00:00:00 NR 20.5000 115.200 PROVISIONAL 221 197 O_____________ tcvitals WP262022 20.5000 115.200 51 991 0 245 100 90 110 1007 200 40 4 323
2022300N13131 2022 78 WP MM NALGAE 2022-11-02 03:00:00 NR 20.6775 115.043 PROVISIONAL 193 168 P_____________ WP262022 20.6775 115.043 48 993 0 247 95 85 118 1006 205 45 5 325
2022300N13131 2022 78 WP MM NALGAE 2022-11-02 06:00:00 NR 20.9000 114.900 PROVISIONAL 168 137 O_____________ tcvitals WP262022 20.9000 114.900 45 995 0 250 90 80 126 1006 210 50 5 346
2022300N13131 2022 78 WP MM NALGAE 2022-11-02 09:00:00 NR 21.1847 114.902 PROVISIONAL 137 103 P_____________ WP262022 21.1847 114.902 42 998 0 222 60 60 80 1008 175 42 6 351
2022300N13131 2022 78 WP MM NALGAE 2022-11-02 12:00:00 NR 21.5000 114.800 PROVISIONAL 103 56 O_____________ tcvitals WP262022 21.5000 114.800 39 1002 0 195 30 40 35 1010 140 35 8 321
2022300N13131 2022 78 WP MM NALGAE 2022-11-02 15:00:00 NR 21.8153 114.360 PROVISIONAL 56 32 P_____________ WP262022 21.8153 114.360 37 1002 0 152 50 45 42 1010 130 35 11 303
2022300N13131 2022 78 WP MM NALGAE 2022-11-02 18:00:00 NR 22.1000 113.800 PROVISIONAL 32 0 O_____________ tcvitals WP262022 22.1000 113.800 35 1003 0 110 70 50 50 1010 120 35 11 298
2022300N13131 2022 78 WP MM NALGAE 2022-11-02 21:00:00 NR 22.3451 113.305 PROVISIONAL 0 0 P_____________ WP262022 22.3451 113.305 30 1006 -1 1011 110 35 9 296
2022300N13131 2022 78 WP MM NALGAE 2022-11-03 00:00:00 NR 22.5000 112.900 PROVISIONAL 0 0 O_____________ tcvitals WP262022 22.5000 112.900 25 1010 -1 1012 100 35 6 287
2022300N13131 2022 78 WP MM NALGAE 2022-11-03 03:00:00 NR 22.5297 112.670 PROVISIONAL 0 0 P_____________ WP262022 22.5297 112.670 22 1010 -1 1012 100 35 4 270
2022300N13131 2022 78 WP MM NALGAE 2022-11-03 06:00:00 NR 22.5000 112.500 PROVISIONAL 0 0 O_____________ tcvitals WP262022 22.5000 112.500 19 1011 -1 1012 100 35 4 264
2022300N13131 2022 78 WP MM NALGAE 2022-11-03 09:00:00 NR 22.4902 112.273 PROVISIONAL 0 0 P_____________ WP262022 22.4902 112.273 19 1010 -1 1012 100 35 5 270
2022300N13131 2022 78 WP MM NALGAE 2022-11-03 12:00:00 NR 22.5000 112.000 PROVISIONAL 0 O_____________ tcvitals WP262022 22.5000 112.000 19 1010 -1 1012 100 35 5 272

Digital Typhoon Data and Search

About IBTrACS Database

This database is a web-friendly format of International Best Track Archive for Climate Stewardship (IBTrACS), a global best track data archive curated by NOAA dating back to 1842.

Updated: 2022-11-16